Kingsgate, Washington
Current Conditions -  °F | °C
As of 9:14 PM on Thursday 27 Nov 2014 (Local Time) from KBFI Reporting Station
Overcast Overcast  
Wind Chill: 57°   Ceiling: 2200
Heat Index: 57°   Visibility: 10mi
Dew Point: 50°   Wind: 14mph
Humidity: 77%   Direction: 170°S
Pressure: 29.73"   Gusts: 22mph
Location:  47.7179°N, 122.204°W
Report Text: KBFI 280514Z 17012G19KT 10SM BKN022 OVC033 14/10 A2973 RMK AO2
Loading
Personal Weather Stations






























Interactive Weather Map New forecast layout! Learn more

10-Day Weather Forecast

Advertisements
Track Severe Weather on mobile